OEJN/JED METAR and TAF weather

Enter ICAO airport designator
Station Type Date Time Source
OEJN METAR 2019/04/18 14:00 UTC NOAA

OEJN 181400Z 29016KT CAVOK 30/15 Q1010 NOSIG


Station Type Date Time Source
OEJN Decoded METAR 2019/04/18 14:00 UTC NOAA

Jeddah King Abdul Aziz International Airport , Saudi Arabia (OEJN) 21-42N 039-11E 17M
Apr 18, 2019 - 10:00 AM EDT / 2019.04.18 1400 UTC
Wind: from the WNW (290 degrees) at 18 MPH (16 KT):0
Visibility: greater than 7 mile(s):0
Temperature: 86 F (30 C)
Dew Point: 59 F (15 C)
Relative Humidity: 40%
Pressure (altimeter): 29.83 in. Hg (1010 hPa)
ob: OEJN 181400Z 29016KT CAVOK 30/15 Q1010 NOSIG
cycle: 14

Station Type Date Time Source
OEJN TAF 2019/04/18 12:03 UTC NOAA

TAF OEJN 181100Z 1812/1918 32010G20KT 9999 FEW040
BECMG 1816/1818 36012KT

Example: see airport list